Fresno Yosemite International Airport
KFAT : now visible

Airfield :











YOU CAN JOIN US ON...

 
LOGIN :

Register | Disclaimer

   EN    FR    IT 

 









Legend :    VFR   Marginal VFR   IFR   Intensive IFR   Very Intensive IFR
Visi :
Ceiling :
>= 8 km
>= 3000ft
5 to 8 km
1000 to 3000 ft
1500m to 5 km
500 to 1000 ft
800 to 1500m
200 to 500 ft
< 800m
< 200 ft
Symbols :   Thunderstorms  Fog  Heavy snow  Heavy precipitations  Wind > 20 kt






- Airport Elevation : 336 ft
- IATA code : FAT


KFAT - Fresno Yosemite International

CURRENT METAR :
  • 291253Z 32004KT 7SM OVC005 08/07 A3022 RMK AO2 SLP233 T00780067

EXPIRED METARs :
  • 291227Z 30006KT 8SM OVC004 08/07 A3023 RMK AO2 T00780067
  • 291202Z 34006KT 9SM BKN007 08/07 A3024 RMK AO2 T00780067
  • 291153Z 34005KT 9SM SCT007 08/07 A3024 RMK AO2 SLP239 T00780067 10128 20078 50000
  • 291053Z 30009KT 10SM CLR 08/07 A3024 RMK AO2 SLP240 T00830072

TAF KFAT
Valid from the 29 at 12:00 until the 30 at 12:00 UTC


291220Z 2912/3012 35005KT 6SM BR BKN007
FM292000 27004KT P6SM FEW200
FM300600 11002KT 6SM HZ BKN250
FM300900 00000KT 4SM BR BKN250



MET'MAP, your aeronautical weather chart ! - Copyright ORBIFLY December 2007 - Disclaimer

ORBIFLY MET'MAP TEAM :

Programming & Development : Alexandra Zaïnal
Concept & original design : Baudouin d'Aumeries
Assistance for programming : Marc-Olivier Méhu
Technical & hardware support : Manuel Goepfert

Contact : metmap@orbifly.com




SOURCES & CREDITS :

   NOAA       Earth
Advisory